Time;durP1;ratioP1;P1;durP2;ratioP2;P2;SDS_P1;SDS_P2;PMS_P1;PMS_P2;Temp;Humidity;BMP_temperature;BMP_pressure;BME280_temperature;BME280_humidity;BME280_pressure;Samples;Min_cycle;Max_cycle;Signal;HPM_P1;HPM_P2
2024/03/31 12:48:02;;;;;;;24.20;5.07;;;;;;;;;;4915376;29;20530;-73
2024/03/31 12:50:28;;;;;;;16.80;4.53;;;;;;;;;;4933138;29;20425;-74
2024/03/31 12:53:04;;;;;;;28.80;5.10;;;;;;;;;;4957032;28;20420;-72
2024/03/31 12:55:30;;;;;;;24.50;4.93;;;;;;;;;;4946547;29;20893;-71
2024/03/31 12:57:57;;;;;;;22.03;4.83;;;;;;;;;;4925732;29;20422;-76
2024/03/31 13:00:23;;;;;;;18.17;4.53;;;;;;;;;;4926232;29;20489;-76
2024/03/31 13:02:49;;;;;;;29.13;4.77;;;;;;;;;;4922914;29;20547;-77
2024/03/31 13:05:15;;;;;;;27.67;4.03;;;;;;;;;;4925079;29;20905;-75
2024/03/31 13:07:41;;;;;;;47.57;5.60;;;;;;;;;;4881308;29;20469;-79
2024/03/31 13:12:44;;;;;;;36.30;5.23;;;;;;;;;;5191651;27;20536;-76
2024/03/31 13:15:10;;;;;;;31.90;5.00;;;;;;;;;;5159979;27;20929;-76
2024/03/31 13:17:36;;;;;;;29.30;5.27;;;;;;;;;;5126410;27;20445;-76
2024/03/31 13:20:05;;;;;;;39.97;5.60;;;;;;;;;;5122537;28;20491;-77
2024/03/31 13:22:31;;;;;;;30.23;4.40;;;;;;;;;;5122097;27;20417;-76
2024/03/31 13:24:57;;;;;;;25.80;5.60;;;;;;;;;;5112962;28;20444;-76
2024/03/31 13:27:24;;;;;;;24.53;5.60;;;;;;;;;;5052850;28;21664;-76
2024/03/31 13:29:50;;;;;;;19.97;4.83;;;;;;;;;;5025336;28;20447;-75
2024/03/31 13:33:41;;;;;;;27.23;5.30;;;;;;;;;;5191604;27;20532;-74
2024/03/31 13:36:07;;;;;;;25.27;5.20;;;;;;;;;;5161891;27;20819;-74
2024/03/31 13:38:33;;;;;;;21.80;4.13;;;;;;;;;;5105084;27;1246335;-75
2024/03/31 13:40:59;;;;;;;25.23;4.40;;;;;;;;;;5071626;28;20431;-74
2024/03/31 13:43:25;;;;;;;28.43;4.90;;;;;;;;;;5069709;28;20895;-75
2024/03/31 13:45:51;;;;;;;19.57;4.53;;;;;;;;;;5068725;28;20438;-73
2024/03/31 13:48:18;;;;;;;21.00;3.83;;;;;;;;;;5068270;28;20427;-73
2024/03/31 13:50:44;;;;;;;27.43;4.20;;;;;;;;;;5069079;28;20424;-72
2024/03/31 13:53:10;;;;;;;21.30;4.47;;;;;;;;;;5068109;28;20985;-75
2024/03/31 13:55:36;;;;;;;30.43;4.80;;;;;;;;;;5067928;28;20427;-75
2024/03/31 13:58:02;;;;;;;26.57;4.93;;;;;;;;;;5067442;28;20427;-73
2024/03/31 14:00:28;;;;;;;14.40;3.63;;;;;;;;;;5069124;28;20403;-73
2024/03/31 14:02:56;;;;;;;20.60;4.33;;;;;;;;;;5068722;28;20481;-74
2024/03/31 14:05:22;;;;;;;17.77;3.60;;;;;;;;;;5069095;28;20404;-73
2024/03/31 14:07:48;;;;;;;17.93;3.70;;;;;;;;;;5068499;28;20410;-76
2024/03/31 14:10:14;;;;;;;21.20;3.87;;;;;;;;;;5068669;28;20411;-73
2024/03/31 14:12:46;;;;;;;22.33;3.30;;;;;;;;;;5067341;28;20548;-74
2024/03/31 14:15:12;;;;;;;15.47;4.00;;;;;;;;;;5067720;28;20426;-73
2024/03/31 14:17:38;;;;;;;16.63;3.90;;;;;;;;;;5068273;28;20427;-75
2024/03/31 14:20:08;;;;;;;16.93;3.33;;;;;;;;;;5082239;28;20434;-76
2024/03/31 14:22:34;;;;;;;15.30;3.70;;;;;;;;;;5078269;28;20419;-73
2024/03/31 14:24:59;;;;;;;12.87;3.30;;;;;;;;;;5074998;28;20412;-73
2024/03/31 14:27:26;;;;;;;19.70;3.73;;;;;;;;;;5067872;28;20473;-73
2024/03/31 14:29:52;;;;;;;13.27;3.10;;;;;;;;;;5067816;28;20816;-73
2024/03/31 14:32:18;;;;;;;14.63;3.97;;;;;;;;;;5067538;28;20516;-73
2024/03/31 14:34:44;;;;;;;22.10;3.83;;;;;;;;;;5066846;28;20424;-74
2024/03/31 14:37:10;;;;;;;20.00;5.23;;;;;;;;;;5068148;28;20431;-73
2024/03/31 14:39:36;;;;;;;14.80;3.50;;;;;;;;;;5092735;28;20508;-74
2024/03/31 14:42:01;;;;;;;15.83;3.97;;;;;;;;;;5109076;28;20821;-73
2024/03/31 14:44:27;;;;;;;12.17;3.57;;;;;;;;;;5098580;28;20451;-73
2024/03/31 14:46:53;;;;;;;14.40;3.50;;;;;;;;;;5095173;28;20427;-73
2024/03/31 14:49:19;;;;;;;20.97;3.57;;;;;;;;;;5093724;28;20418;-74
2024/03/31 14:51:46;;;;;;;16.33;2.93;;;;;;;;;;5093508;28;20465;-74
2024/03/31 14:54:12;;;;;;;12.90;3.07;;;;;;;;;;5083764;28;20415;-74
2024/03/31 14:56:40;;;;;;;20.70;3.70;;;;;;;;;;5073316;28;20536;-74
2024/03/31 14:59:06;;;;;;;10.90;3.53;;;;;;;;;;5074231;28;20418;-74
2024/03/31 15:01:32;;;;;;;25.77;3.70;;;;;;;;;;5080123;28;20509;-74
2024/03/31 15:03:58;;;;;;;27.03;3.90;;;;;;;;;;5076859;28;20423;-74
2024/03/31 15:06:24;;;;;;;20.80;4.23;;;;;;;;;;5073891;28;20428;-75
2024/03/31 15:08:50;;;;;;;24.50;3.43;;;;;;;;;;5074242;28;20446;-74
2024/03/31 15:11:16;;;;;;;18.27;4.47;;;;;;;;;;5074064;28;20435;-74
2024/03/31 15:13:42;;;;;;;15.80;4.73;;;;;;;;;;5087679;28;20905;-74
2024/03/31 15:16:09;;;;;;;19.73;3.90;;;;;;;;;;5094807;28;20457;-74
2024/03/31 15:18:34;;;;;;;15.00;2.97;;;;;;;;;;5093156;28;20418;-74
2024/03/31 15:21:00;;;;;;;16.03;3.53;;;;;;;;;;5094220;28;20464;-73
2024/03/31 15:23:26;;;;;;;16.40;3.30;;;;;;;;;;5082335;28;20419;-73
2024/03/31 15:25:52;;;;;;;18.33;3.10;;;;;;;;;;5075477;28;20431;-74
2024/03/31 15:28:18;;;;;;;9.37;3.60;;;;;;;;;;5073302;28;20419;-73
2024/03/31 15:30:52;;;;;;;14.90;3.50;;;;;;;;;;5075803;28;20418;-74
2024/03/31 15:33:18;;;;;;;21.97;3.93;;;;;;;;;;5090782;28;20489;-74
2024/03/31 15:35:44;;;;;;;16.80;3.63;;;;;;;;;;5094083;28;20917;-74
2024/03/31 15:38:11;;;;;;;17.93;4.40;;;;;;;;;;5093572;28;20440;-74
2024/03/31 15:40:36;;;;;;;16.60;3.90;;;;;;;;;;5072468;28;20431;-74
2024/03/31 15:43:03;;;;;;;20.57;3.50;;;;;;;;;;5083100;28;20447;-74
2024/03/31 15:45:28;;;;;;;12.63;3.10;;;;;;;;;;5071103;28;20411;-76
2024/03/31 15:47:54;;;;;;;17.97;4.17;;;;;;;;;;5071522;28;20412;-75
2024/03/31 15:50:20;;;;;;;20.90;3.77;;;;;;;;;;5071678;28;20461;-75
2024/03/31 15:52:46;;;;;;;15.03;3.17;;;;;;;;;;5074516;28;20481;-74
2024/03/31 15:55:12;;;;;;;18.90;3.70;;;;;;;;;;5089865;28;20404;-76
2024/03/31 15:57:38;;;;;;;23.97;5.07;;;;;;;;;;5079094;28;20415;-73
2024/03/31 16:00:04;;;;;;;16.03;3.30;;;;;;;;;;5073588;28;20886;-73
2024/03/31 16:02:30;;;;;;;17.33;3.77;;;;;;;;;;5072433;28;20486;-74
2024/03/31 16:04:56;;;;;;;18.67;3.90;;;;;;;;;;5067263;28;20528;-74
2024/03/31 16:07:22;;;;;;;23.70;3.80;;;;;;;;;;5054094;28;20429;-77
2024/03/31 16:09:48;;;;;;;22.70;3.60;;;;;;;;;;5053080;28;20420;-76
2024/03/31 16:12:14;;;;;;;15.17;4.00;;;;;;;;;;5053683;28;20539;-73
2024/03/31 16:14:40;;;;;;;24.57;4.00;;;;;;;;;;5049396;28;20477;-75
2024/03/31 16:17:06;;;;;;;14.90;3.70;;;;;;;;;;5059396;28;20481;-73
2024/03/31 16:19:32;;;;;;;11.87;3.37;;;;;;;;;;5036722;28;20424;-73
2024/03/31 16:21:59;;;;;;;17.23;4.33;;;;;;;;;;5066065;28;20411;-74
2024/03/31 16:24:25;;;;;;;26.33;3.90;;;;;;;;;;5054219;28;20466;-73
2024/03/31 16:26:51;;;;;;;24.00;4.87;;;;;;;;;;5069024;28;20435;-74
2024/03/31 16:29:17;;;;;;;13.33;3.37;;;;;;;;;;5043194;28;20417;-74
2024/03/31 16:31:43;;;;;;;19.77;5.00;;;;;;;;;;5051302;28;20474;-72
2024/03/31 16:34:09;;;;;;;17.40;3.53;;;;;;;;;;5045435;28;20444;-73
2024/03/31 16:36:35;;;;;;;20.60;4.53;;;;;;;;;;5069885;28;20443;-72
2024/03/31 16:39:01;;;;;;;15.90;3.90;;;;;;;;;;5053746;28;20428;-76
2024/03/31 16:41:27;;;;;;;20.87;3.77;;;;;;;;;;5053319;28;20412;-77
2024/03/31 16:43:53;;;;;;;14.97;3.40;;;;;;;;;;5072898;28;20445;-77
2024/03/31 16:46:19;;;;;;;15.70;3.57;;;;;;;;;;5073948;28;20435;-78
2024/03/31 16:48:45;;;;;;;20.93;4.23;;;;;;;;;;5088734;28;20479;-77
2024/03/31 16:51:11;;;;;;;16.17;4.27;;;;;;;;;;5094538;28;20419;-77
2024/03/31 16:53:37;;;;;;;12.70;3.50;;;;;;;;;;5094132;28;20475;-78
2024/03/31 16:56:03;;;;;;;21.10;4.03;;;;;;;;;;5095890;28;20431;-77
2024/03/31 16:58:29;;;;;;;20.43;4.53;;;;;;;;;;5093690;28;20422;-77
2024/03/31 17:00:56;;;;;;;19.10;3.63;;;;;;;;;;5068139;28;20414;-77
2024/03/31 17:03:23;;;;;;;28.03;4.70;;;;;;;;;;5076517;28;20481;-78
2024/03/31 17:05:49;;;;;;;23.00;5.53;;;;;;;;;;5074257;28;20423;-78
2024/03/31 17:08:15;;;;;;;14.70;4.83;;;;;;;;;;5056206;28;20427;-78
2024/03/31 17:10:42;;;;;;;12.37;4.40;;;;;;;;;;5074292;28;20414;-78
2024/03/31 17:13:08;;;;;;;21.70;4.50;;;;;;;;;;5073907;28;21026;-78
2024/03/31 17:15:34;;;;;;;29.10;8.33;;;;;;;;;;5073965;28;20486;-78
2024/03/31 17:18:03;;;;;;;14.10;4.13;;;;;;;;;;5073746;28;20494;-78
2024/03/31 17:20:29;;;;;;;19.07;4.97;;;;;;;;;;5073376;28;20411;-78
2024/03/31 17:22:55;;;;;;;26.07;5.80;;;;;;;;;;5073455;28;20407;-78
2024/03/31 17:25:21;;;;;;;24.40;4.40;;;;;;;;;;5073517;28;20431;-78
2024/03/31 17:27:47;;;;;;;18.40;5.27;;;;;;;;;;5073800;28;20426;-78
2024/03/31 17:30:13;;;;;;;14.77;5.07;;;;;;;;;;5056216;28;20959;-78
2024/03/31 17:32:39;;;;;;;24.23;4.50;;;;;;;;;;5073920;28;20452;-78
2024/03/31 17:35:05;;;;;;;20.00;5.47;;;;;;;;;;5073364;28;20446;-79
2024/03/31 17:37:31;;;;;;;20.07;5.20;;;;;;;;;;5055970;28;20435;-78
2024/03/31 17:39:57;;;;;;;15.40;5.40;;;;;;;;;;5073278;28;20427;-78
2024/03/31 17:42:23;;;;;;;16.40;4.57;;;;;;;;;;5055347;28;20972;-78
2024/03/31 17:44:49;;;;;;;30.23;5.77;;;;;;;;;;5073376;28;20940;-78
2024/03/31 17:47:16;;;;;;;23.73;5.77;;;;;;;;;;5073931;28;20542;-78
2024/03/31 17:49:42;;;;;;;16.57;5.77;;;;;;;;;;5056177;28;20821;-78
2024/03/31 17:52:07;;;;;;;20.67;5.10;;;;;;;;;;5056184;28;20478;-78
2024/03/31 17:54:33;;;;;;;32.30;5.10;;;;;;;;;;5062637;28;20438;-78
2024/03/31 17:56:59;;;;;;;16.20;4.47;;;;;;;;;;5063842;28;20451;-78
2024/03/31 17:59:25;;;;;;;27.40;5.00;;;;;;;;;;5061646;28;20419;-78
2024/03/31 18:01:52;;;;;;;26.77;4.60;;;;;;;;;;5059723;28;20408;-78
2024/03/31 18:04:19;;;;;;;19.73;5.30;;;;;;;;;;5057849;28;20922;-78
2024/03/31 18:06:46;;;;;;;11.47;4.70;;;;;;;;;;5056108;28;20469;-78
2024/03/31 18:09:12;;;;;;;24.30;5.80;;;;;;;;;;5075183;28;20490;-78
2024/03/31 18:11:38;;;;;;;18.70;5.30;;;;;;;;;;5074047;28;20507;-78
2024/03/31 18:14:04;;;;;;;21.87;5.10;;;;;;;;;;5055716;28;20782;-78
2024/03/31 18:16:30;;;;;;;22.73;5.40;;;;;;;;;;5073819;28;20435;-79
2024/03/31 18:18:56;;;;;;;23.20;6.40;;;;;;;;;;5056941;28;20423;-78
2024/03/31 18:21:24;;;;;;;26.47;5.73;;;;;;;;;;5078845;28;20422;-79
2024/03/31 18:23:50;;;;;;;17.07;5.10;;;;;;;;;;5080637;28;20840;-79
2024/03/31 18:26:17;;;;;;;21.10;4.93;;;;;;;;;;5080882;28;20438;-79
2024/03/31 18:28:43;;;;;;;23.40;6.53;;;;;;;;;;5063743;28;20497;-79
2024/03/31 18:31:09;;;;;;;15.90;5.13;;;;;;;;;;5062951;28;20476;-79
2024/03/31 18:33:42;;;;;;;16.30;4.50;;;;;;;;;;5063671;28;20527;-79
2024/03/31 18:36:09;;;;;;;25.67;6.00;;;;;;;;;;5081746;28;20431;-79
2024/03/31 18:38:35;;;;;;;19.40;4.50;;;;;;;;;;5058511;28;20459;-79
2024/03/31 18:41:02;;;;;;;15.23;5.90;;;;;;;;;;5042268;28;20755;-79
2024/03/31 18:43:35;;;;;;;25.10;5.80;;;;;;;;;;5042563;28;20560;-79
2024/03/31 18:46:05;;;;;;;18.23;5.37;;;;;;;;;;5046034;28;20440;-78
2024/03/31 18:48:34;;;;;;;17.00;4.40;;;;;;;;;;5045197;28;20871;-80
2024/03/31 18:51:04;;;;;;;20.50;5.10;;;;;;;;;;5061523;28;20424;-79
2024/03/31 18:53:29;;;;;;;19.57;5.00;;;;;;;;;;5062383;28;20527;-79
2024/03/31 18:55:56;;;;;;;19.97;6.50;;;;;;;;;;5044110;28;20463;-79
2024/03/31 18:58:23;;;;;;;27.67;7.13;;;;;;;;;;5044715;28;20448;-79
2024/03/31 19:00:51;;;;;;;14.70;6.03;;;;;;;;;;5062683;28;20408;-79
2024/03/31 19:03:17;;;;;;;19.83;6.33;;;;;;;;;;5042434;28;20431;-79
2024/03/31 19:05:43;;;;;;;29.50;7.90;;;;;;;;;;5058146;28;20444;-78
2024/03/31 19:08:09;;;;;;;18.80;6.93;;;;;;;;;;5040763;28;20935;-78
2024/03/31 19:10:35;;;;;;;18.60;5.77;;;;;;;;;;5058343;28;20435;-79
2024/03/31 19:13:02;;;;;;;24.20;6.53;;;;;;;;;;5058505;28;20463;-78
2024/03/31 19:15:28;;;;;;;20.03;6.30;;;;;;;;;;5039527;28;20409;-78
2024/03/31 19:17:54;;;;;;;23.37;6.40;;;;;;;;;;5061045;28;20416;-79
2024/03/31 19:20:20;;;;;;;21.60;5.93;;;;;;;;;;5063288;28;20585;-79
2024/03/31 19:22:47;;;;;;;20.83;5.87;;;;;;;;;;5064894;28;20404;-79
2024/03/31 19:25:16;;;;;;;22.50;5.50;;;;;;;;;;5046778;28;20420;-79
2024/03/31 19:27:42;;;;;;;30.30;6.30;;;;;;;;;;5063589;28;20462;-79
2024/03/31 19:30:08;;;;;;;17.10;6.90;;;;;;;;;;5042277;28;20435;-79
2024/03/31 19:32:34;;;;;;;36.03;6.23;;;;;;;;;;5061425;28;20470;-79
2024/03/31 19:35:00;;;;;;;15.90;4.67;;;;;;;;;;5061039;28;20404;-79
2024/03/31 19:37:26;;;;;;;18.73;5.43;;;;;;;;;;5061565;28;20460;-79
2024/03/31 19:39:52;;;;;;;24.67;4.73;;;;;;;;;;5077235;28;20423;-79
2024/03/31 19:42:21;;;;;;;34.43;5.90;;;;;;;;;;5084624;28;20445;-79
2024/03/31 19:44:50;;;;;;;22.90;5.30;;;;;;;;;;5066744;28;20487;-79
2024/03/31 19:47:17;;;;;;;15.00;4.93;;;;;;;;;;5076631;28;20431;-77
2024/03/31 19:49:44;;;;;;;16.63;4.80;;;;;;;;;;5073895;28;20469;-77
2024/03/31 19:52:10;;;;;;;24.87;5.67;;;;;;;;;;5056249;28;20517;-77
2024/03/31 19:54:37;;;;;;;18.00;5.07;;;;;;;;;;5056032;28;20420;-77
2024/03/31 19:57:03;;;;;;;28.60;7.47;;;;;;;;;;5074104;28;20438;-77
2024/03/31 19:59:29;;;;;;;19.00;5.70;;;;;;;;;;5073802;28;20929;-77
2024/03/31 20:01:55;;;;;;;16.43;4.37;;;;;;;;;;5073894;28;20447;-77
2024/03/31 20:04:20;;;;;;;23.10;5.57;;;;;;;;;;5073537;28;20414;-77
2024/03/31 20:06:47;;;;;;;23.97;4.60;;;;;;;;;;5073901;28;21003;-77
2024/03/31 20:09:15;;;;;;;14.40;5.33;;;;;;;;;;5073768;28;20497;-77
2024/03/31 20:11:41;;;;;;;21.77;4.50;;;;;;;;;;5055182;28;20423;-76
2024/03/31 20:14:07;;;;;;;17.13;5.20;;;;;;;;;;5055317;28;20422;-77
2024/03/31 20:16:33;;;;;;;23.77;4.77;;;;;;;;;;5073506;28;20431;-77
2024/03/31 20:19:02;;;;;;;16.00;5.10;;;;;;;;;;5073902;28;20895;-76
2024/03/31 20:21:28;;;;;;;20.70;5.03;;;;;;;;;;5055560;28;20415;-76
2024/03/31 20:23:54;;;;;;;19.33;4.80;;;;;;;;;;5073779;28;20419;-76
2024/03/31 20:26:20;;;;;;;19.90;4.80;;;;;;;;;;5057057;28;20492;-76
2024/03/31 20:28:46;;;;;;;22.07;5.10;;;;;;;;;;5055660;28;20780;-77
2024/03/31 20:31:12;;;;;;;18.47;4.73;;;;;;;;;;5055599;28;20419;-77
2024/03/31 20:33:39;;;;;;;13.13;4.53;;;;;;;;;;5054846;28;20573;-77
2024/03/31 20:36:05;;;;;;;11.40;3.63;;;;;;;;;;5074275;28;20489;-77
2024/03/31 20:38:31;;;;;;;25.17;4.40;;;;;;;;;;5071815;28;20411;-77
2024/03/31 20:41:00;;;;;;;32.73;4.83;;;;;;;;;;5053071;28;20494;-77
2024/03/31 20:43:27;;;;;;;19.47;3.83;;;;;;;;;;5054484;28;20408;-77
2024/03/31 20:46:00;;;;;;;9.70;3.90;;;;;;;;;;5054819;28;20431;-77
2024/03/31 20:48:26;;;;;;;27.83;4.20;;;;;;;;;;5053280;28;20838;-78
2024/03/31 20:50:56;;;;;;;18.33;4.53;;;;;;;;;;5035219;28;20424;-77
2024/03/31 20:53:22;;;;;;;19.87;4.00;;;;;;;;;;5034538;28;20469;-78
2024/03/31 20:55:58;;;;;;;21.43;4.97;;;;;;;;;;5053324;28;20802;-78
2024/03/31 20:58:24;;;;;;;15.03;3.30;;;;;;;;;;5035466;28;20779;-78
2024/03/31 21:01:00;;;;;;;12.83;3.50;;;;;;;;;;5052837;28;20416;-78
2024/03/31 21:03:26;;;;;;;24.60;5.10;;;;;;;;;;5053046;28;20829;-78
2024/03/31 21:05:56;;;;;;;19.27;4.37;;;;;;;;;;5036077;28;20444;-77
2024/03/31 21:08:22;;;;;;;12.97;3.77;;;;;;;;;;5036917;28;20447;-78
2024/03/31 21:10:48;;;;;;;7.97;3.93;;;;;;;;;;5035606;28;20412;-78
2024/03/31 21:13:14;;;;;;;21.93;3.80;;;;;;;;;;5035732;28;20563;-77
2024/03/31 21:15:40;;;;;;;12.60;3.60;;;;;;;;;;5036399;28;20425;-78
2024/03/31 21:18:06;;;;;;;15.03;3.73;;;;;;;;;;5035857;28;20411;-78
2024/03/31 21:20:36;;;;;;;18.17;4.50;;;;;;;;;;5036323;28;20982;-78
2024/03/31 21:23:02;;;;;;;21.37;4.00;;;;;;;;;;5054206;28;20446;-78
2024/03/31 21:25:28;;;;;;;13.20;3.37;;;;;;;;;;5053636;28;20419;-78
2024/03/31 21:27:54;;;;;;;15.47;4.20;;;;;;;;;;5054440;28;20416;-78
2024/03/31 21:30:20;;;;;;;19.53;3.97;;;;;;;;;;5065368;28;20415;-77
2024/03/31 21:32:46;;;;;;;8.87;3.20;;;;;;;;;;5063475;28;20448;-78
2024/03/31 21:35:12;;;;;;;18.57;3.67;;;;;;;;;;5045084;28;20499;-77
2024/03/31 21:37:38;;;;;;;14.77;3.50;;;;;;;;;;5055270;28;20471;-77
2024/03/31 21:40:04;;;;;;;20.13;3.60;;;;;;;;;;5061361;28;20496;-77
2024/03/31 21:42:30;;;;;;;21.43;4.87;;;;;;;;;;5074688;28;20415;-78
2024/03/31 21:44:56;;;;;;;15.00;3.50;;;;;;;;;;5073544;28;20802;-77
2024/03/31 21:47:22;;;;;;;19.47;4.47;;;;;;;;;;5073917;28;20427;-77
2024/03/31 21:49:48;;;;;;;19.73;3.27;;;;;;;;;;5071950;28;20422;-78
2024/03/31 21:52:14;;;;;;;14.67;4.10;;;;;;;;;;5072072;28;20458;-77
2024/03/31 21:54:40;;;;;;;20.43;4.47;;;;;;;;;;5076075;28;20903;-78
2024/03/31 21:57:06;;;;;;;15.30;4.27;;;;;;;;;;5075363;28;20508;-78
2024/03/31 21:59:32;;;;;;;17.20;3.87;;;;;;;;;;5075199;28;20415;-78
2024/03/31 22:01:58;;;;;;;17.60;3.97;;;;;;;;;;5075151;28;20902;-78
2024/03/31 22:04:24;;;;;;;8.40;3.17;;;;;;;;;;5074832;28;20423;-78
2024/03/31 22:06:50;;;;;;;24.43;5.27;;;;;;;;;;5074888;28;20953;-78
2024/03/31 22:09:16;;;;;;;16.57;3.00;;;;;;;;;;5075450;28;20785;-78
2024/03/31 22:11:44;;;;;;;11.70;2.93;;;;;;;;;;5076468;28;20415;-78
2024/03/31 22:14:10;;;;;;;11.67;3.03;;;;;;;;;;5074936;28;20418;-78
2024/03/31 22:16:36;;;;;;;7.53;3.90;;;;;;;;;;5076079;28;20437;-78
2024/03/31 22:19:02;;;;;;;12.33;3.20;;;;;;;;;;5076471;28;20784;-77
2024/03/31 22:21:28;;;;;;;13.13;3.67;;;;;;;;;;5074551;28;20415;-77
2024/03/31 22:23:54;;;;;;;20.40;3.43;;;;;;;;;;5074855;28;20430;-78
2024/03/31 22:26:20;;;;;;;13.97;3.50;;;;;;;;;;5074033;28;20439;-78
2024/03/31 22:28:46;;;;;;;15.57;4.47;;;;;;;;;;5075579;28;20438;-77
2024/03/31 22:31:12;;;;;;;12.10;2.73;;;;;;;;;;5075062;28;20739;-78
2024/03/31 22:33:38;;;;;;;6.57;2.47;;;;;;;;;;5075070;28;20466;-78
2024/03/31 22:36:04;;;;;;;10.80;2.40;;;;;;;;;;5075257;28;20453;-78
2024/03/31 22:38:30;;;;;;;11.70;3.00;;;;;;;;;;5073190;28;20407;-78
2024/03/31 22:40:56;;;;;;;16.90;3.27;;;;;;;;;;5037273;28;20934;-78
2024/03/31 22:43:22;;;;;;;13.07;3.40;;;;;;;;;;5054791;28;20764;-78
2024/03/31 22:45:50;;;;;;;7.87;3.27;;;;;;;;;;5054914;28;20490;-78
2024/03/31 22:48:17;;;;;;;9.90;3.77;;;;;;;;;;5054950;28;20506;-77
2024/03/31 22:50:43;;;;;;;9.30;3.70;;;;;;;;;;5056663;28;20503;-78
2024/03/31 22:53:09;;;;;;;12.27;2.97;;;;;;;;;;5056785;28;20494;-78
2024/03/31 22:55:35;;;;;;;16.03;3.73;;;;;;;;;;5054750;28;20470;-77
2024/03/31 22:58:01;;;;;;;10.37;3.37;;;;;;;;;;5055318;28;20408;-78
